Elkhart Lake, Wisconsin
Current Conditions -  °F | °C
As of 4:53 AM on Tuesday 21 Oct 2014 (Local Time) from KSBM Reporting Station
Overcast Overcast  
Wind Chill:   Ceiling: 2100
Heat Index:   Visibility: 10mi
Dew Point:   Wind: 7mph
Humidity: 80%   Direction: 340°NNW
Pressure: 30.08"   Gusts: NA
Location:  43.83°N, 88.02°W
Report Text: KSBM 210953Z AUTO 34006KT 10SM OVC021 07/04 A3008 RMK AO2 SLP190 T00720039
Loading
Personal Weather Stations






























Interactive Weather Map
Tropical Storm Tracking
New forecast layout! Learn more

10-Day Weather Forecast

Advertisements
Track Severe Weather on mobile